Terminal Aerodrome Forecast
Issued by NWS North Platte, NE

Home | Current Version | Previous Version | Text Only | Print | Product List | Glossary Off
Versions: 1 2 3 4 5 6 7 8 9 10 11 12 13 14 15 16

929
FTUS43 KLBF 182323
TAFVTN
TAF
KVTN 182323Z 1900/1924 27008KT P6SM SCT250
     FM190300 16008KT P6SM SKC
     FM190700 18012KT P6SM FEW250 WS015/18045KT
     FM191400 18012KT P6SM FEW250
     FM191700 19014G20KT P6SM SCT250=

USA.gov is the U.S. government's official web portal to all federal, state and local government web resources and services.